createdAt,value
2023-09-27T00:00:09.793Z,8.10
2023-09-27T00:02:40.746Z,8.23
2023-09-27T00:05:11.385Z,11.85
2023-09-27T00:07:42.084Z,8.40
2023-09-27T00:10:11.414Z,9.13
2023-09-27T00:12:39.952Z,9.30
2023-09-27T00:15:09.436Z,10.52
2023-09-27T00:17:37.113Z,15.00
2023-09-27T00:20:06.991Z,10.85
2023-09-27T00:22:34.327Z,8.15
2023-09-27T00:25:02.221Z,9.05
2023-09-27T00:27:29.516Z,10.60
2023-09-27T00:29:56.861Z,11.15
2023-09-27T00:32:24.313Z,9.35
2023-09-27T00:34:51.725Z,12.27
2023-09-27T00:37:18.987Z,9.95
2023-09-27T00:39:46.304Z,10.65
2023-09-27T00:42:14.119Z,10.15
2023-09-27T00:44:41.898Z,11.07
2023-09-27T00:47:09.318Z,8.98
2023-09-27T00:49:37.516Z,9.52
2023-09-27T00:52:05.960Z,9.05
2023-09-27T00:54:35.455Z,11.85
2023-09-27T00:57:04.818Z,10.23
2023-09-27T00:59:32.494Z,13.10
2023-09-27T01:02:00.145Z,13.98
2023-09-27T01:04:27.706Z,9.38
2023-09-27T01:06:55.175Z,9.98
2023-09-27T01:09:22.945Z,10.75
2023-09-27T01:11:50.473Z,11.02
2023-09-27T01:14:18.016Z,13.45
2023-09-27T01:16:45.380Z,12.68
2023-09-27T01:19:13.798Z,11.77
2023-09-27T01:21:41.157Z,11.73
2023-09-27T01:24:10.731Z,11.63
2023-09-27T01:26:38.849Z,10.63
2023-09-27T01:29:07.333Z,9.02
2023-09-27T01:31:35.368Z,10.20
2023-09-27T01:34:02.660Z,9.85
2023-09-27T01:36:30.192Z,9.85
2023-09-27T01:38:57.481Z,11.95
2023-09-27T01:41:24.818Z,9.73
2023-09-27T01:43:52.942Z,12.43
2023-09-27T01:46:20.312Z,10.13
2023-09-27T01:48:49.299Z,12.70
2023-09-27T01:51:16.658Z,12.32
2023-09-27T01:53:44.006Z,10.00
2023-09-27T01:56:11.403Z,11.77
2023-09-27T01:58:38.785Z,12.07
2023-09-27T02:01:06.157Z,16.67
2023-09-27T02:03:34.058Z,12.70
2023-09-27T02:06:02.268Z,11.13
2023-09-27T02:08:29.697Z,11.15
2023-09-27T02:10:57.028Z,14.95
2023-09-27T02:13:24.327Z,12.02
2023-09-27T02:15:51.630Z,10.02
2023-09-27T02:18:18.971Z,11.93
2023-09-27T02:20:46.812Z,13.20
2023-09-27T02:23:14.145Z,11.35
2023-09-27T02:25:41.567Z,12.57
2023-09-27T02:28:09.446Z,9.77
2023-09-27T02:30:36.870Z,14.18
2023-09-27T02:33:04.336Z,13.45
2023-09-27T02:35:31.680Z,11.52
2023-09-27T02:37:59.115Z,15.90
2023-09-27T02:40:26.548Z,13.80
2023-09-27T02:42:55.013Z,12.20
2023-09-27T02:45:22.415Z,14.73
2023-09-27T02:47:49.737Z,12.98
2023-09-27T02:50:17.365Z,14.00
2023-09-27T02:52:45.383Z,17.67
2023-09-27T02:55:13.432Z,13.82
2023-09-27T02:57:41.078Z,12.07
2023-09-27T03:00:09.674Z,13.57
2023-09-27T03:02:38.395Z,13.50
2023-09-27T03:05:08.636Z,14.63
2023-09-27T03:07:36.275Z,15.65
2023-09-27T03:10:05.684Z,14.10
2023-09-27T03:12:33.651Z,13.70
2023-09-27T03:15:01.066Z,16.30
2023-09-27T03:17:28.768Z,11.43
2023-09-27T03:19:56.332Z,10.43
2023-09-27T03:22:23.679Z,12.63
2023-09-27T03:24:52.224Z,10.82
2023-09-27T03:27:19.886Z,14.43
2023-09-27T03:29:48.054Z,14.90
2023-09-27T03:32:15.470Z,12.48
2023-09-27T03:34:42.779Z,13.55
2023-09-27T03:37:10.802Z,13.57
2023-09-27T03:39:38.206Z,13.50
2023-09-27T03:42:05.893Z,13.90
2023-09-27T03:47:04.247Z,12.50
2023-09-27T03:49:31.672Z,15.15
2023-09-27T03:51:59.163Z,14.05
2023-09-27T03:54:26.860Z,15.38
2023-09-27T03:56:55.480Z,16.50
2023-09-27T03:59:23.689Z,13.93
2023-09-27T04:01:52.468Z,11.82
2023-09-27T04:04:20.090Z,13.57
2023-09-27T04:06:47.462Z,13.10
2023-09-27T04:09:15.121Z,13.88
2023-09-27T04:11:42.529Z,12.77
2023-09-27T04:14:10.068Z,13.10
2023-09-27T04:16:37.347Z,11.27
2023-09-27T04:19:04.974Z,12.38
2023-09-27T04:21:32.483Z,12.60
2023-09-27T04:24:00.906Z,11.50
2023-09-27T04:26:28.467Z,12.23
2023-09-27T04:28:55.894Z,12.70
2023-09-27T04:31:23.332Z,13.75
2023-09-27T04:34:02.730Z,13.68
2023-09-27T04:36:31.963Z,13.10
2023-09-27T04:38:59.486Z,14.27
2023-09-27T04:41:26.878Z,13.95
2023-09-27T04:43:54.274Z,16.98
2023-09-27T04:46:21.596Z,11.73
2023-09-27T04:48:48.933Z,14.20
2023-09-27T04:51:16.273Z,13.30
2023-09-27T04:53:43.678Z,12.35
2023-09-27T04:56:13.930Z,14.65
2023-09-27T04:58:44.145Z,11.40
2023-09-27T05:01:12.207Z,12.00
2023-09-27T05:03:40.200Z,14.40
2023-09-27T05:06:08.152Z,17.52
2023-09-27T05:08:35.632Z,14.10
2023-09-27T05:11:03.146Z,14.52
2023-09-27T05:13:30.640Z,14.13
2023-09-27T05:15:58.009Z,14.60
2023-09-27T05:18:25.497Z,13.88
2023-09-27T05:20:52.968Z,12.95
2023-09-27T05:23:20.327Z,14.23
2023-09-27T05:25:48.328Z,11.57
2023-09-27T05:28:16.553Z,15.65
2023-09-27T05:30:44.152Z,13.50
2023-09-27T05:33:11.532Z,12.88
2023-09-27T05:35:38.888Z,19.33
2023-09-27T05:38:06.318Z,12.13
2023-09-27T05:40:33.759Z,14.23
2023-09-27T05:43:03.046Z,15.32
2023-09-27T05:45:30.397Z,13.13
2023-09-27T05:47:57.831Z,14.35
2023-09-27T05:50:25.267Z,18.35
2023-09-27T05:52:53.144Z,11.38
2023-09-27T05:55:21.254Z,12.35
2023-09-27T05:57:50.906Z,15.85
2023-09-27T06:00:27.801Z,13.07
2023-09-27T06:02:55.644Z,12.25
2023-09-27T06:05:23.485Z,10.70
2023-09-27T06:07:51.055Z,12.93
2023-09-27T06:10:18.624Z,14.15
2023-09-27T06:12:46.028Z,17.08
2023-09-27T06:15:14.145Z,14.95
2023-09-27T06:17:43.351Z,13.80
2023-09-27T06:20:17.256Z,12.38
2023-09-27T06:22:46.796Z,10.82
2023-09-27T06:25:14.982Z,15.50
2023-09-27T06:27:43.891Z,13.73
2023-09-27T06:30:12.873Z,12.75
2023-09-27T06:32:40.313Z,13.82
2023-09-27T06:35:13.953Z,12.07
2023-09-27T06:37:44.838Z,15.23
2023-09-27T06:40:17.722Z,13.45
2023-09-27T06:42:46.649Z,13.07
2023-09-27T06:45:14.889Z,13.70
2023-09-27T06:47:43.520Z,12.75
2023-09-27T06:50:11.371Z,14.00
2023-09-27T06:52:41.026Z,11.98
2023-09-27T06:55:13.051Z,13.30
2023-09-27T06:57:53.418Z,11.77
2023-09-27T07:00:25.287Z,10.70
2023-09-27T07:02:53.630Z,13.18
2023-09-27T07:05:25.039Z,14.45
2023-09-27T07:07:54.350Z,11.15
2023-09-27T07:10:24.167Z,11.80
2023-09-27T07:12:51.577Z,12.00
2023-09-27T07:15:20.296Z,9.70
2023-09-27T07:20:35.620Z,10.52
2023-09-27T07:23:07.682Z,10.38
2023-09-27T07:25:38.688Z,10.00
2023-09-27T07:28:07.352Z,11.13
2023-09-27T07:30:35.298Z,8.50
2023-09-27T07:33:12.945Z,11.93
2023-09-27T07:35:45.304Z,10.07
2023-09-27T07:38:13.032Z,10.57
2023-09-27T07:40:40.597Z,10.90
2023-09-27T07:43:08.013Z,10.35
2023-09-27T07:45:37.708Z,9.18
2023-09-27T07:48:05.613Z,8.77
2023-09-27T07:50:35.390Z,11.88
2023-09-27T07:53:07.486Z,12.30
2023-09-27T07:55:44.320Z,9.00
2023-09-27T07:58:13.858Z,10.73
2023-09-27T08:00:42.117Z,7.13
2023-09-27T08:05:47.648Z,10.10
2023-09-27T08:08:15.528Z,10.25
2023-09-27T08:10:48.343Z,12.02
2023-09-27T08:13:17.315Z,9.13
2023-09-27T08:15:48.036Z,12.07
2023-09-27T08:18:16.738Z,9.50
2023-09-27T08:20:44.458Z,15.30
2023-09-27T08:23:12.620Z,13.27
2023-09-27T08:25:40.245Z,12.52
2023-09-27T08:28:08.005Z,11.45
2023-09-27T08:30:35.535Z,11.50
2023-09-27T08:33:03.295Z,13.68
2023-09-27T08:35:31.360Z,12.68
2023-09-27T08:37:59.068Z,14.75
2023-09-27T08:40:26.956Z,14.95
2023-09-27T08:42:59.342Z,14.23
2023-09-27T08:45:28.298Z,14.15
2023-09-27T08:47:56.056Z,11.70
2023-09-27T08:50:25.778Z,13.52
2023-09-27T08:52:53.512Z,13.73
2023-09-27T08:55:21.308Z,11.15
2023-09-27T08:57:51.232Z,13.25
2023-09-27T09:00:22.894Z,11.38
2023-09-27T09:02:58.544Z,12.65
2023-09-27T09:05:29.189Z,12.05
2023-09-27T09:07:58.282Z,16.15
2023-09-27T09:10:25.623Z,13.27
2023-09-27T09:12:53.434Z,14.93
2023-09-27T09:15:48.417Z,15.90
2023-09-27T09:18:30.149Z,19.40
2023-09-27T09:21:00.937Z,14.93
2023-09-27T09:23:35.965Z,18.23
2023-09-27T09:26:11.102Z,17.42
2023-09-27T09:28:58.679Z,17.23
2023-09-27T09:31:28.605Z,16.42
2023-09-27T09:34:12.095Z,19.95
2023-09-27T09:36:39.516Z,14.48
2023-09-27T09:39:18.496Z,16.63
2023-09-27T09:41:50.765Z,15.13
2023-09-27T09:44:23.175Z,11.82
2023-09-27T09:46:52.984Z,14.68
2023-09-27T09:49:21.775Z,9.52
2023-09-27T09:51:51.179Z,9.25
2023-09-27T09:54:29.503Z,12.93
2023-09-27T09:57:10.077Z,10.95
2023-09-27T09:59:57.346Z,10.63
2023-09-27T10:02:28.835Z,10.35
2023-09-27T10:05:00.238Z,9.27
2023-09-27T10:07:29.973Z,10.27
2023-09-27T10:09:58.402Z,13.73
2023-09-27T10:12:27.410Z,9.10
2023-09-27T10:14:55.565Z,9.25
2023-09-27T10:17:24.464Z,13.68
2023-09-27T10:20:14.105Z,9.73
2023-09-27T10:22:44.453Z,10.70
2023-09-27T10:25:28.088Z,8.50
2023-09-27T10:28:09.484Z,11.10
2023-09-27T10:30:42.686Z,8.73
2023-09-27T10:33:16.259Z,10.20
2023-09-27T10:35:43.813Z,10.05
2023-09-27T10:38:12.295Z,10.82
2023-09-27T10:40:47.182Z,10.68
2023-09-27T10:43:36.478Z,9.23
2023-09-27T10:46:05.629Z,10.80
2023-09-27T10:48:33.319Z,10.77
2023-09-27T10:51:00.996Z,10.00
2023-09-27T10:53:28.418Z,9.38
2023-09-27T10:55:56.025Z,8.13
2023-09-27T10:58:23.311Z,7.03
2023-09-27T11:00:52.491Z,9.27
2023-09-27T11:03:20.482Z,7.90
2023-09-27T11:05:48.822Z,8.07
2023-09-27T11:08:26.312Z,8.43
2023-09-27T11:10:57.107Z,11.20
2023-09-27T11:13:25.483Z,10.93
2023-09-27T11:15:53.118Z,9.85
2023-09-27T11:18:20.694Z,7.93
2023-09-27T11:20:48.375Z,9.48
2023-09-27T11:23:15.809Z,7.18
2023-09-27T11:25:44.818Z,7.45
2023-09-27T11:28:18.513Z,8.93
2023-09-27T11:30:46.037Z,9.35
2023-09-27T11:33:18.042Z,7.55
2023-09-27T11:35:50.524Z,8.63
2023-09-27T11:38:18.012Z,8.05
2023-09-27T11:40:46.307Z,7.68
2023-09-27T11:43:14.116Z,9.57
2023-09-27T11:45:46.524Z,8.85
2023-09-27T11:48:14.784Z,7.47
2023-09-27T11:50:42.368Z,7.85
2023-09-27T11:53:10.010Z,5.78
2023-09-27T11:55:37.659Z,7.85
2023-09-27T11:58:04.973Z,8.02
2023-09-27T12:00:33.255Z,7.35
2023-09-27T12:03:00.801Z,10.20
2023-09-27T12:05:28.982Z,6.82
2023-09-27T12:07:56.689Z,7.53
2023-09-27T12:10:24.183Z,7.03
2023-09-27T12:12:51.541Z,6.63
2023-09-27T12:15:18.956Z,7.00
2023-09-27T12:17:46.359Z,7.32
2023-09-27T12:20:32.055Z,7.53
2023-09-27T12:23:05.086Z,7.30
2023-09-27T12:25:34.396Z,7.15
2023-09-27T12:28:02.429Z,7.57
2023-09-27T12:32:57.244Z,6.90
2023-09-27T12:35:24.794Z,7.05
2023-09-27T12:37:52.202Z,9.82
2023-09-27T12:40:19.657Z,8.30
2023-09-27T12:42:47.081Z,8.10
2023-09-27T12:45:14.645Z,7.85
2023-09-27T12:47:42.783Z,7.80
2023-09-27T12:50:10.477Z,6.60
2023-09-27T12:52:38.215Z,7.00
2023-09-27T12:55:06.545Z,6.57
2023-09-27T12:57:34.143Z,6.90
2023-09-27T13:00:02.214Z,5.32
2023-09-27T13:02:32.508Z,7.45
2023-09-27T13:05:00.112Z,6.47
2023-09-27T13:07:28.315Z,6.68
2023-09-27T13:09:55.756Z,6.03
2023-09-27T13:12:23.095Z,6.10
2023-09-27T13:14:50.585Z,7.93
2023-09-27T13:17:18.095Z,5.38
2023-09-27T13:19:46.000Z,4.30
2023-09-27T13:22:13.353Z,4.10
2023-09-27T13:24:42.901Z,7.82
2023-09-27T13:27:10.572Z,5.55
2023-09-27T13:29:40.452Z,6.25
2023-09-27T13:32:07.898Z,6.82
2023-09-27T13:34:36.938Z,6.32
2023-09-27T13:37:04.296Z,5.20
2023-09-27T13:39:31.737Z,5.10
2023-09-27T13:41:59.118Z,5.65
2023-09-27T13:44:27.880Z,4.63
2023-09-27T13:46:55.366Z,5.63
2023-09-27T13:49:22.840Z,7.20
2023-09-27T13:51:50.159Z,6.60
2023-09-27T13:54:17.526Z,6.05
2023-09-27T13:56:44.931Z,5.38
2023-09-27T13:59:12.299Z,7.25
2023-09-27T14:01:40.173Z,6.97
2023-09-27T14:04:08.693Z,5.30
2023-09-27T14:06:36.068Z,5.97
2023-09-27T14:09:03.707Z,4.85
2023-09-27T14:11:31.188Z,5.07
2023-09-27T14:13:58.579Z,5.88
2023-09-27T14:16:26.542Z,6.82
2023-09-27T14:18:54.184Z,7.10
2023-09-27T14:21:21.915Z,6.57
2023-09-27T14:23:50.084Z,5.20
2023-09-27T14:26:20.365Z,5.10
2023-09-27T14:28:48.029Z,5.55
2023-09-27T14:31:18.027Z,7.55
2023-09-27T14:33:45.728Z,4.32
2023-09-27T14:36:13.483Z,4.45
2023-09-27T14:41:11.360Z,7.50
2023-09-27T14:43:40.216Z,7.15
2023-09-27T14:46:12.115Z,5.35
2023-09-27T14:48:40.446Z,5.25
2023-09-27T14:51:12.951Z,5.40
2023-09-27T14:53:42.340Z,4.78
2023-09-27T14:56:10.880Z,6.95
2023-09-27T14:58:38.577Z,5.68
2023-09-27T15:01:06.250Z,8.13
2023-09-27T15:03:34.516Z,7.10
2023-09-27T15:06:06.829Z,5.18
2023-09-27T15:08:34.936Z,7.72
2023-09-27T15:11:04.316Z,5.65
2023-09-27T15:13:32.703Z,4.95
2023-09-27T15:16:02.310Z,4.50
2023-09-27T15:18:30.639Z,7.47
2023-09-27T15:20:58.172Z,4.53
2023-09-27T15:23:26.677Z,5.22
2023-09-27T15:25:54.176Z,5.13
2023-09-27T15:28:21.636Z,5.93
2023-09-27T15:30:49.286Z,5.68
2023-09-27T15:33:16.801Z,5.18
2023-09-27T15:35:57.445Z,5.30
2023-09-27T15:38:28.135Z,4.97
2023-09-27T15:40:56.078Z,5.47
2023-09-27T15:46:04.095Z,5.65
2023-09-27T15:48:34.895Z,6.80
2023-09-27T15:51:11.578Z,5.03
2023-09-27T15:53:39.634Z,7.15
2023-09-27T15:56:08.852Z,6.00
2023-09-27T15:58:36.507Z,5.32
2023-09-27T16:01:05.347Z,7.38
2023-09-27T16:03:33.462Z,5.57
2023-09-27T16:06:03.719Z,5.38
2023-09-27T16:08:33.278Z,5.63
2023-09-27T16:11:02.306Z,6.68
2023-09-27T16:13:29.842Z,5.55
2023-09-27T16:15:57.582Z,6.88
2023-09-27T16:18:24.958Z,7.45
2023-09-27T16:20:52.709Z,6.38
2023-09-27T16:23:20.229Z,7.18
2023-09-27T16:25:48.066Z,6.20
2023-09-27T16:28:16.627Z,6.13
2023-09-27T16:30:44.421Z,7.18
2023-09-27T16:33:13.219Z,6.70
2023-09-27T16:35:41.344Z,6.30
2023-09-27T16:38:10.723Z,6.47
2023-09-27T16:40:40.178Z,4.97
2023-09-27T16:43:07.784Z,8.35
2023-09-27T16:45:37.826Z,9.05
2023-09-27T16:48:05.754Z,6.25
2023-09-27T16:50:33.247Z,7.45
2023-09-27T16:53:00.721Z,5.15
2023-09-27T16:55:28.320Z,6.05
2023-09-27T16:57:55.885Z,6.63
2023-09-27T17:00:24.536Z,7.75
2023-09-27T17:02:57.100Z,5.65
2023-09-27T17:05:27.850Z,8.07
2023-09-27T17:07:55.753Z,6.97
2023-09-27T17:10:23.881Z,10.73
2023-09-27T17:15:20.895Z,11.10
2023-09-27T17:17:48.446Z,7.47
2023-09-27T17:20:16.169Z,8.13
2023-09-27T17:22:44.154Z,10.10
2023-09-27T17:25:12.499Z,5.55
2023-09-27T17:30:08.890Z,5.28
2023-09-27T17:32:38.883Z,5.45
2023-09-27T17:35:07.295Z,5.78
2023-09-27T17:37:35.756Z,11.57
2023-09-27T17:40:10.466Z,5.38
2023-09-27T17:42:39.208Z,8.07
2023-09-27T17:45:09.391Z,7.00
2023-09-27T17:47:37.378Z,5.55
2023-09-27T17:50:05.130Z,5.93
2023-09-27T17:52:32.603Z,7.45
2023-09-27T17:54:59.921Z,8.57
2023-09-27T17:57:27.207Z,7.10
2023-09-27T17:59:54.591Z,5.60
2023-09-27T18:02:21.993Z,6.68
2023-09-27T18:04:49.434Z,6.75
2023-09-27T18:07:18.110Z,6.45
2023-09-27T18:09:45.454Z,5.53
2023-09-27T18:12:13.374Z,4.88
2023-09-27T18:14:40.771Z,6.30
2023-09-27T18:17:08.392Z,5.18
2023-09-27T18:19:35.696Z,7.85
2023-09-27T18:22:03.634Z,10.52
2023-09-27T18:24:31.008Z,6.32
2023-09-27T18:26:58.844Z,7.60
2023-09-27T18:29:26.345Z,5.95
2023-09-27T18:34:20.937Z,5.00
2023-09-27T18:36:49.424Z,4.93
2023-09-27T18:41:44.462Z,6.97
2023-09-27T18:44:12.964Z,4.45
2023-09-27T18:46:41.946Z,4.97
2023-09-27T18:49:09.471Z,6.07
2023-09-27T18:51:36.938Z,7.57
2023-09-27T18:54:05.069Z,6.97
2023-09-27T18:56:32.708Z,8.30
2023-09-27T18:59:00.126Z,8.32
2023-09-27T19:01:28.741Z,5.95
2023-09-27T19:03:56.461Z,5.65
2023-09-27T19:06:25.219Z,5.15
2023-09-27T19:08:55.073Z,5.78
2023-09-27T19:11:22.660Z,8.73
2023-09-27T19:13:50.385Z,8.25
2023-09-27T19:16:17.820Z,9.50
2023-09-27T19:18:45.507Z,7.90
2023-09-27T19:21:13.471Z,8.73
2023-09-27T19:23:41.537Z,10.55
2023-09-27T19:26:13.192Z,7.72
2023-09-27T19:28:41.560Z,7.10
2023-09-27T19:31:10.071Z,5.38
2023-09-27T19:33:42.780Z,8.48
2023-09-27T19:36:21.120Z,9.75
2023-09-27T19:38:49.500Z,9.70
2023-09-27T19:41:16.998Z,6.18
2023-09-27T19:43:45.465Z,8.50
2023-09-27T19:48:45.308Z,9.30
2023-09-27T19:51:23.680Z,11.25
2023-09-27T19:53:53.068Z,9.85
2023-09-27T19:56:22.465Z,8.15
2023-09-27T19:58:50.280Z,9.70
2023-09-27T20:01:38.414Z,8.40
2023-09-27T20:04:06.177Z,7.80
2023-09-27T20:06:37.617Z,6.88
2023-09-27T20:09:05.059Z,11.20
2023-09-27T20:11:32.435Z,9.05
2023-09-27T20:14:00.064Z,9.43
2023-09-27T20:16:28.873Z,8.70
2023-09-27T20:18:56.233Z,7.50
2023-09-27T20:21:23.586Z,8.70
2023-09-27T20:23:50.920Z,9.05
2023-09-27T20:26:18.247Z,6.25
2023-09-27T20:28:45.714Z,8.50
2023-09-27T20:31:15.067Z,9.90
2023-09-27T20:33:42.445Z,8.50
2023-09-27T20:36:13.833Z,9.90
2023-09-27T20:38:41.705Z,8.73
2023-09-27T20:41:12.375Z,10.75
2023-09-27T20:43:39.787Z,7.28
2023-09-27T20:46:14.858Z,7.13
2023-09-27T20:48:42.441Z,7.20
2023-09-27T20:51:10.902Z,9.32
2023-09-27T20:53:38.560Z,6.93
2023-09-27T20:56:06.943Z,7.55
2023-09-27T20:58:35.055Z,8.23
2023-09-27T21:01:07.926Z,7.75
2023-09-27T21:03:36.577Z,10.90
2023-09-27T21:08:33.263Z,9.65
2023-09-27T21:11:00.582Z,10.15
2023-09-27T21:13:28.398Z,10.55
2023-09-27T21:15:55.778Z,8.45
2023-09-27T21:18:23.163Z,9.00
2023-09-27T21:20:50.469Z,7.75
2023-09-27T21:23:17.851Z,13.25
2023-09-27T21:25:45.145Z,7.43
2023-09-27T21:28:12.481Z,9.40
2023-09-27T21:30:39.773Z,9.70
2023-09-27T21:33:07.064Z,10.05
2023-09-27T21:35:34.487Z,9.75
2023-09-27T21:38:02.328Z,10.10
2023-09-27T21:40:29.648Z,7.93
2023-09-27T21:42:58.383Z,6.63
2023-09-27T21:45:25.706Z,7.78
2023-09-27T21:47:53.056Z,10.05
2023-09-27T21:50:20.396Z,9.73
2023-09-27T21:52:47.697Z,11.77
2023-09-27T21:55:15.071Z,9.07
2023-09-27T21:57:43.017Z,8.30
2023-09-27T22:00:20.876Z,12.38
2023-09-27T22:02:48.899Z,12.40
2023-09-27T22:05:16.393Z,9.40
2023-09-27T22:07:45.427Z,9.65
2023-09-27T22:10:12.836Z,7.72
2023-09-27T22:12:40.410Z,11.68
2023-09-27T22:15:10.655Z,13.13
2023-09-27T22:17:39.065Z,15.18
2023-09-27T22:20:15.689Z,10.43
2023-09-27T22:22:44.802Z,8.45
2023-09-27T22:25:14.940Z,11.25
2023-09-27T22:27:50.241Z,7.93
2023-09-27T22:30:17.524Z,12.15
2023-09-27T22:32:46.256Z,9.15
2023-09-27T22:35:23.518Z,9.77
2023-09-27T22:37:51.624Z,9.75
2023-09-27T22:40:21.145Z,9.95
2023-09-27T22:42:50.345Z,10.27
2023-09-27T22:45:29.157Z,9.43
2023-09-27T22:48:00.938Z,11.05
2023-09-27T22:50:31.924Z,10.57
2023-09-27T22:52:59.613Z,11.23
2023-09-27T22:55:30.277Z,10.95
2023-09-27T22:57:57.755Z,9.82
2023-09-27T23:00:26.318Z,10.98
2023-09-27T23:02:56.625Z,7.95
2023-09-27T23:05:34.201Z,10.02
2023-09-27T23:08:13.245Z,11.07
2023-09-27T23:10:41.337Z,8.63
2023-09-27T23:13:29.705Z,11.07
2023-09-27T23:15:58.488Z,9.82
2023-09-27T23:18:28.749Z,9.25
2023-09-27T23:21:00.312Z,11.75
2023-09-27T23:23:37.285Z,12.82
2023-09-27T23:26:04.622Z,9.73
2023-09-27T23:28:41.391Z,12.32
2023-09-27T23:31:10.002Z,10.25
2023-09-27T23:33:42.789Z,11.48
2023-09-27T23:36:25.095Z,8.30
2023-09-27T23:38:59.519Z,9.65
2023-09-27T23:41:31.760Z,9.85
2023-09-27T23:44:09.857Z,9.65
2023-09-27T23:46:41.049Z,12.27
2023-09-27T23:49:17.057Z,8.88
2023-09-27T23:51:44.483Z,11.50
2023-09-27T23:54:11.791Z,10.50
2023-09-27T23:56:39.947Z,13.80
2023-09-27T23:59:20.681Z,16.65
